sensor_id;sensor_type;location;lat;lon;timestamp;P1;durP1;ratioP1;P2;durP2;ratioP2
15673;SDS011;7937;48.090;16.212;2023-02-28T00:02:17;5.80;;;4.47;;
15673;SDS011;7937;48.090;16.212;2023-02-28T00:05:20;6.63;;;4.90;;
15673;SDS011;7937;48.090;16.212;2023-02-28T00:08:24;7.40;;;5.10;;
15673;SDS011;7937;48.090;16.212;2023-02-28T00:11:26;7.30;;;4.50;;
15673;SDS011;7937;48.090;16.212;2023-02-28T00:14:30;8.20;;;4.80;;
15673;SDS011;7937;48.090;16.212;2023-02-28T00:17:32;6.50;;;4.90;;
15673;SDS011;7937;48.090;16.212;2023-02-28T00:20:34;5.73;;;4.00;;
15673;SDS011;7937;48.090;16.212;2023-02-28T00:23:36;8.73;;;4.73;;
15673;SDS011;7937;48.090;16.212;2023-02-28T00:26:38;5.77;;;4.57;;
15673;SDS011;7937;48.090;16.212;2023-02-28T00:29:40;8.47;;;5.57;;
15673;SDS011;7937;48.090;16.212;2023-02-28T00:32:44;6.90;;;4.73;;
15673;SDS011;7937;48.090;16.212;2023-02-28T00:35:46;7.23;;;4.67;;
15673;SDS011;7937;48.090;16.212;2023-02-28T00:38:50;8.77;;;5.10;;
15673;SDS011;7937;48.090;16.212;2023-02-28T00:41:52;6.60;;;4.43;;
15673;SDS011;7937;48.090;16.212;2023-02-28T00:44:55;6.70;;;4.60;;
15673;SDS011;7937;48.090;16.212;2023-02-28T00:47:57;9.73;;;4.80;;
15673;SDS011;7937;48.090;16.212;2023-02-28T00:50:59;6.57;;;4.97;;
15673;SDS011;7937;48.090;16.212;2023-02-28T00:54:01;6.20;;;5.03;;
15673;SDS011;7937;48.090;16.212;2023-02-28T00:57:03;7.93;;;4.83;;
15673;SDS011;7937;48.090;16.212;2023-02-28T01:00:06;7.87;;;4.83;;
15673;SDS011;7937;48.090;16.212;2023-02-28T01:03:10;7.23;;;5.23;;
15673;SDS011;7937;48.090;16.212;2023-02-28T01:06:11;7.30;;;4.87;;
15673;SDS011;7937;48.090;16.212;2023-02-28T01:09:14;7.83;;;5.23;;
15673;SDS011;7937;48.090;16.212;2023-02-28T01:12:16;6.57;;;4.77;;
15673;SDS011;7937;48.090;16.212;2023-02-28T01:15:21;8.23;;;5.50;;
15673;SDS011;7937;48.090;16.212;2023-02-28T01:18:22;9.07;;;5.93;;
15673;SDS011;7937;48.090;16.212;2023-02-28T01:21:26;9.17;;;5.40;;
15673;SDS011;7937;48.090;16.212;2023-02-28T01:24:28;7.80;;;5.03;;
15673;SDS011;7937;48.090;16.212;2023-02-28T01:27:30;9.37;;;5.43;;
15673;SDS011;7937;48.090;16.212;2023-02-28T01:30:33;8.50;;;5.20;;
15673;SDS011;7937;48.090;16.212;2023-02-28T01:33:35;7.80;;;4.97;;
15673;SDS011;7937;48.090;16.212;2023-02-28T01:36:37;7.17;;;4.70;;
15673;SDS011;7937;48.090;16.212;2023-02-28T01:39:39;6.97;;;5.23;;
15673;SDS011;7937;48.090;16.212;2023-02-28T01:42:41;10.30;;;5.50;;
15673;SDS011;7937;48.090;16.212;2023-02-28T01:45:43;9.17;;;5.23;;
15673;SDS011;7937;48.090;16.212;2023-02-28T01:48:51;7.37;;;5.30;;
15673;SDS011;7937;48.090;16.212;2023-02-28T01:52:01;8.03;;;5.60;;
15673;SDS011;7937;48.090;16.212;2023-02-28T01:55:04;8.30;;;5.57;;
15673;SDS011;7937;48.090;16.212;2023-02-28T01:58:09;9.00;;;5.53;;
15673;SDS011;7937;48.090;16.212;2023-02-28T02:01:12;8.53;;;5.77;;
15673;SDS011;7937;48.090;16.212;2023-02-28T02:04:23;7.03;;;5.10;;
15673;SDS011;7937;48.090;16.212;2023-02-28T02:07:29;7.80;;;5.13;;
15673;SDS011;7937;48.090;16.212;2023-02-28T02:10:39;7.43;;;4.70;;
15673;SDS011;7937;48.090;16.212;2023-02-28T02:17:03;7.17;;;4.90;;
15673;SDS011;7937;48.090;16.212;2023-02-28T02:20:32;6.57;;;4.67;;
15673;SDS011;7937;48.090;16.212;2023-02-28T02:30:57;6.37;;;4.77;;
15673;SDS011;7937;48.090;16.212;2023-02-28T02:41:23;7.77;;;4.87;;
15673;SDS011;7937;48.090;16.212;2023-02-28T02:44:44;8.00;;;5.13;;
15673;SDS011;7937;48.090;16.212;2023-02-28T02:47:50;8.10;;;5.13;;
15673;SDS011;7937;48.090;16.212;2023-02-28T02:50:57;9.27;;;5.57;;
15673;SDS011;7937;48.090;16.212;2023-02-28T02:54:08;7.53;;;5.37;;
15673;SDS011;7937;48.090;16.212;2023-02-28T02:57:20;7.87;;;5.37;;
15673;SDS011;7937;48.090;16.212;2023-02-28T03:00:30;8.43;;;5.00;;
15673;SDS011;7937;48.090;16.212;2023-02-28T03:03:36;9.07;;;5.23;;
15673;SDS011;7937;48.090;16.212;2023-02-28T03:06:39;7.33;;;5.03;;
15673;SDS011;7937;48.090;16.212;2023-02-28T03:09:50;7.53;;;4.87;;
15673;SDS011;7937;48.090;16.212;2023-02-28T03:12:58;7.57;;;4.90;;
15673;SDS011;7937;48.090;16.212;2023-02-28T03:24:01;7.13;;;5.40;;
15673;SDS011;7937;48.090;16.212;2023-02-28T03:30:45;8.37;;;5.23;;
15673;SDS011;7937;48.090;16.212;2023-02-28T03:33:58;8.57;;;6.50;;
15673;SDS011;7937;48.090;16.212;2023-02-28T03:37:07;10.13;;;5.87;;
15673;SDS011;7937;48.090;16.212;2023-02-28T03:40:15;9.23;;;5.73;;
15673;SDS011;7937;48.090;16.212;2023-02-28T03:43:22;9.30;;;5.90;;
15673;SDS011;7937;48.090;16.212;2023-02-28T03:46:33;10.43;;;5.90;;
15673;SDS011;7937;48.090;16.212;2023-02-28T03:49:40;7.60;;;5.13;;
15673;SDS011;7937;48.090;16.212;2023-02-28T03:52:50;10.50;;;6.27;;
15673;SDS011;7937;48.090;16.212;2023-02-28T03:56:05;11.83;;;5.97;;
15673;SDS011;7937;48.090;16.212;2023-02-28T03:59:13;8.77;;;5.80;;
15673;SDS011;7937;48.090;16.212;2023-02-28T04:02:20;9.03;;;5.70;;
15673;SDS011;7937;48.090;16.212;2023-02-28T04:05:22;9.23;;;6.13;;
15673;SDS011;7937;48.090;16.212;2023-02-28T04:08:24;8.83;;;5.87;;
15673;SDS011;7937;48.090;16.212;2023-02-28T04:14:36;9.57;;;6.40;;
15673;SDS011;7937;48.090;16.212;2023-02-28T04:17:38;9.80;;;6.57;;
15673;SDS011;7937;48.090;16.212;2023-02-28T04:20:40;11.53;;;5.83;;
15673;SDS011;7937;48.090;16.212;2023-02-28T04:23:42;11.03;;;6.90;;
15673;SDS011;7937;48.090;16.212;2023-02-28T04:26:45;11.73;;;6.87;;
15673;SDS011;7937;48.090;16.212;2023-02-28T04:29:49;9.67;;;6.00;;
15673;SDS011;7937;48.090;16.212;2023-02-28T04:32:50;12.63;;;7.30;;
15673;SDS011;7937;48.090;16.212;2023-02-28T04:36:02;10.47;;;7.10;;
15673;SDS011;7937;48.090;16.212;2023-02-28T04:39:06;10.20;;;6.47;;
15673;SDS011;7937;48.090;16.212;2023-02-28T04:42:08;10.13;;;6.53;;
15673;SDS011;7937;48.090;16.212;2023-02-28T04:45:11;10.13;;;7.23;;
15673;SDS011;7937;48.090;16.212;2023-02-28T04:48:13;8.37;;;6.13;;
15673;SDS011;7937;48.090;16.212;2023-02-28T04:51:16;9.93;;;6.07;;
15673;SDS011;7937;48.090;16.212;2023-02-28T04:54:19;8.80;;;6.00;;
15673;SDS011;7937;48.090;16.212;2023-02-28T04:57:21;9.47;;;5.63;;
15673;SDS011;7937;48.090;16.212;2023-02-28T05:00:23;9.83;;;6.20;;
15673;SDS011;7937;48.090;16.212;2023-02-28T05:03:26;10.43;;;5.83;;
15673;SDS011;7937;48.090;16.212;2023-02-28T05:06:29;10.37;;;5.97;;
15673;SDS011;7937;48.090;16.212;2023-02-28T05:09:33;8.90;;;5.83;;
15673;SDS011;7937;48.090;16.212;2023-02-28T05:12:36;8.57;;;5.60;;
15673;SDS011;7937;48.090;16.212;2023-02-28T05:15:38;10.27;;;6.53;;
15673;SDS011;7937;48.090;16.212;2023-02-28T05:18:40;9.73;;;6.00;;
15673;SDS011;7937;48.090;16.212;2023-02-28T05:21:50;8.33;;;6.07;;
15673;SDS011;7937;48.090;16.212;2023-02-28T05:24:54;10.53;;;6.60;;
15673;SDS011;7937;48.090;16.212;2023-02-28T05:27:56;8.47;;;6.20;;
15673;SDS011;7937;48.090;16.212;2023-02-28T05:30:58;8.83;;;5.50;;
15673;SDS011;7937;48.090;16.212;2023-02-28T05:34:00;10.70;;;6.60;;
15673;SDS011;7937;48.090;16.212;2023-02-28T05:37:02;9.20;;;6.53;;
15673;SDS011;7937;48.090;16.212;2023-02-28T05:40:05;11.47;;;6.57;;
15673;SDS011;7937;48.090;16.212;2023-02-28T05:43:10;12.00;;;6.93;;
15673;SDS011;7937;48.090;16.212;2023-02-28T05:46:13;10.13;;;6.77;;
15673;SDS011;7937;48.090;16.212;2023-02-28T05:49:15;9.93;;;6.87;;
15673;SDS011;7937;48.090;16.212;2023-02-28T05:52:17;10.07;;;6.70;;
15673;SDS011;7937;48.090;16.212;2023-02-28T05:55:19;12.00;;;6.90;;
15673;SDS011;7937;48.090;16.212;2023-02-28T05:58:22;9.73;;;6.53;;
15673;SDS011;7937;48.090;16.212;2023-02-28T06:01:34;11.53;;;6.93;;
15673;SDS011;7937;48.090;16.212;2023-02-28T06:04:49;11.63;;;7.80;;
15673;SDS011;7937;48.090;16.212;2023-02-28T06:07:51;8.97;;;6.00;;
15673;SDS011;7937;48.090;16.212;2023-02-28T06:10:53;8.97;;;6.47;;
15673;SDS011;7937;48.090;16.212;2023-02-28T06:13:56;10.53;;;7.13;;
15673;SDS011;7937;48.090;16.212;2023-02-28T06:17:01;11.20;;;7.00;;
15673;SDS011;7937;48.090;16.212;2023-02-28T06:20:04;10.17;;;6.37;;
15673;SDS011;7937;48.090;16.212;2023-02-28T06:23:07;11.03;;;6.77;;
15673;SDS011;7937;48.090;16.212;2023-02-28T06:26:09;10.47;;;6.37;;
15673;SDS011;7937;48.090;16.212;2023-02-28T06:29:11;10.57;;;7.13;;
15673;SDS011;7937;48.090;16.212;2023-02-28T06:32:18;11.00;;;6.80;;
15673;SDS011;7937;48.090;16.212;2023-02-28T06:35:21;10.50;;;6.70;;
15673;SDS011;7937;48.090;16.212;2023-02-28T06:38:23;11.43;;;6.53;;
15673;SDS011;7937;48.090;16.212;2023-02-28T06:41:26;10.27;;;6.67;;
15673;SDS011;7937;48.090;16.212;2023-02-28T06:44:29;9.57;;;5.83;;
15673;SDS011;7937;48.090;16.212;2023-02-28T06:47:37;9.17;;;6.73;;
15673;SDS011;7937;48.090;16.212;2023-02-28T06:50:40;10.93;;;7.03;;
15673;SDS011;7937;48.090;16.212;2023-02-28T06:53:42;9.97;;;6.80;;
15673;SDS011;7937;48.090;16.212;2023-02-28T06:56:44;9.27;;;6.73;;
15673;SDS011;7937;48.090;16.212;2023-02-28T06:59:46;11.93;;;6.67;;
15673;SDS011;7937;48.090;16.212;2023-02-28T07:02:48;11.10;;;7.83;;
15673;SDS011;7937;48.090;16.212;2023-02-28T07:05:50;13.27;;;8.20;;
15673;SDS011;7937;48.090;16.212;2023-02-28T07:08:53;13.03;;;8.80;;
15673;SDS011;7937;48.090;16.212;2023-02-28T07:11:55;13.37;;;7.97;;
15673;SDS011;7937;48.090;16.212;2023-02-28T07:14:57;14.10;;;8.37;;
15673;SDS011;7937;48.090;16.212;2023-02-28T07:17:59;12.43;;;8.10;;
15673;SDS011;7937;48.090;16.212;2023-02-28T07:21:06;14.43;;;8.97;;
15673;SDS011;7937;48.090;16.212;2023-02-28T07:24:09;12.57;;;8.03;;
15673;SDS011;7937;48.090;16.212;2023-02-28T07:27:12;14.87;;;8.93;;
15673;SDS011;7937;48.090;16.212;2023-02-28T07:30:14;11.77;;;8.83;;
15673;SDS011;7937;48.090;16.212;2023-02-28T07:33:16;14.30;;;9.10;;
15673;SDS011;7937;48.090;16.212;2023-02-28T07:36:18;14.03;;;8.50;;
15673;SDS011;7937;48.090;16.212;2023-02-28T07:39:20;12.97;;;9.80;;
15673;SDS011;7937;48.090;16.212;2023-02-28T07:42:23;12.83;;;9.17;;
15673;SDS011;7937;48.090;16.212;2023-02-28T07:45:25;13.43;;;8.63;;
15673;SDS011;7937;48.090;16.212;2023-02-28T07:48:28;13.30;;;9.07;;
15673;SDS011;7937;48.090;16.212;2023-02-28T07:51:30;13.03;;;8.77;;
15673;SDS011;7937;48.090;16.212;2023-02-28T07:54:32;12.33;;;8.43;;
15673;SDS011;7937;48.090;16.212;2023-02-28T07:57:34;14.67;;;9.03;;
15673;SDS011;7937;48.090;16.212;2023-02-28T08:00:37;12.90;;;9.17;;
15673;SDS011;7937;48.090;16.212;2023-02-28T08:03:39;12.47;;;8.33;;
15673;SDS011;7937;48.090;16.212;2023-02-28T08:06:42;14.00;;;8.33;;
15673;SDS011;7937;48.090;16.212;2023-02-28T08:09:44;11.20;;;8.60;;
15673;SDS011;7937;48.090;16.212;2023-02-28T08:12:46;10.80;;;8.00;;
15673;SDS011;7937;48.090;16.212;2023-02-28T08:15:48;12.13;;;8.20;;
15673;SDS011;7937;48.090;16.212;2023-02-28T08:18:51;11.07;;;8.03;;
15673;SDS011;7937;48.090;16.212;2023-02-28T08:21:54;13.77;;;7.73;;
15673;SDS011;7937;48.090;16.212;2023-02-28T08:24:56;12.77;;;8.57;;
15673;SDS011;7937;48.090;16.212;2023-02-28T08:27:58;10.67;;;7.83;;
15673;SDS011;7937;48.090;16.212;2023-02-28T08:31:00;11.63;;;7.67;;
15673;SDS011;7937;48.090;16.212;2023-02-28T08:34:08;9.43;;;7.90;;
15673;SDS011;7937;48.090;16.212;2023-02-28T08:37:12;10.53;;;8.07;;
15673;SDS011;7937;48.090;16.212;2023-02-28T08:40:14;11.27;;;8.80;;
15673;SDS011;7937;48.090;16.212;2023-02-28T08:43:19;11.33;;;8.20;;
15673;SDS011;7937;48.090;16.212;2023-02-28T08:46:22;12.33;;;8.43;;
15673;SDS011;7937;48.090;16.212;2023-02-28T08:49:25;12.20;;;9.27;;
15673;SDS011;7937;48.090;16.212;2023-02-28T08:52:27;11.50;;;9.07;;
15673;SDS011;7937;48.090;16.212;2023-02-28T08:55:29;12.17;;;8.43;;
15673;SDS011;7937;48.090;16.212;2023-02-28T08:58:31;9.80;;;7.70;;
15673;SDS011;7937;48.090;16.212;2023-02-28T09:01:35;10.43;;;8.97;;
15673;SDS011;7937;48.090;16.212;2023-02-28T09:04:38;12.33;;;9.17;;
15673;SDS011;7937;48.090;16.212;2023-02-28T09:07:40;14.73;;;9.00;;
15673;SDS011;7937;48.090;16.212;2023-02-28T09:10:42;11.03;;;9.40;;
15673;SDS011;7937;48.090;16.212;2023-02-28T09:13:44;10.23;;;8.50;;
15673;SDS011;7937;48.090;16.212;2023-02-28T09:16:47;11.10;;;9.30;;
15673;SDS011;7937;48.090;16.212;2023-02-28T09:19:49;11.40;;;8.87;;
15673;SDS011;7937;48.090;16.212;2023-02-28T09:22:51;11.93;;;9.10;;
15673;SDS011;7937;48.090;16.212;2023-02-28T09:25:53;11.87;;;8.83;;
15673;SDS011;7937;48.090;16.212;2023-02-28T09:28:56;13.07;;;9.53;;
15673;SDS011;7937;48.090;16.212;2023-02-28T09:32:00;12.07;;;9.10;;
15673;SDS011;7937;48.090;16.212;2023-02-28T09:35:03;12.47;;;9.33;;
15673;SDS011;7937;48.090;16.212;2023-02-28T09:38:06;13.33;;;9.57;;
15673;SDS011;7937;48.090;16.212;2023-02-28T09:41:21;13.57;;;10.10;;
15673;SDS011;7937;48.090;16.212;2023-02-28T09:47:45;11.77;;;9.37;;
15673;SDS011;7937;48.090;16.212;2023-02-28T09:50:52;12.33;;;10.03;;
15673;SDS011;7937;48.090;16.212;2023-02-28T09:54:02;13.23;;;9.83;;
15673;SDS011;7937;48.090;16.212;2023-02-28T10:00:19;12.83;;;9.43;;
15673;SDS011;7937;48.090;16.212;2023-02-28T10:03:35;12.00;;;9.37;;
15673;SDS011;7937;48.090;16.212;2023-02-28T10:06:46;14.63;;;9.93;;
15673;SDS011;7937;48.090;16.212;2023-02-28T10:09:53;13.30;;;10.57;;
15673;SDS011;7937;48.090;16.212;2023-02-28T10:13:00;11.70;;;9.70;;
15673;SDS011;7937;48.090;16.212;2023-02-28T10:16:06;12.67;;;9.77;;
15673;SDS011;7937;48.090;16.212;2023-02-28T10:22:22;13.63;;;9.97;;
15673;SDS011;7937;48.090;16.212;2023-02-28T10:25:30;11.73;;;9.70;;
15673;SDS011;7937;48.090;16.212;2023-02-28T10:28:32;13.00;;;10.63;;
15673;SDS011;7937;48.090;16.212;2023-02-28T10:31:34;15.27;;;10.20;;
15673;SDS011;7937;48.090;16.212;2023-02-28T10:34:36;14.07;;;10.60;;
15673;SDS011;7937;48.090;16.212;2023-02-28T10:37:39;13.73;;;10.57;;
15673;SDS011;7937;48.090;16.212;2023-02-28T10:40:42;12.83;;;9.53;;
15673;SDS011;7937;48.090;16.212;2023-02-28T10:43:44;13.37;;;9.13;;
15673;SDS011;7937;48.090;16.212;2023-02-28T10:46:49;13.90;;;8.87;;
15673;SDS011;7937;48.090;16.212;2023-02-28T10:49:52;11.90;;;9.67;;
15673;SDS011;7937;48.090;16.212;2023-02-28T10:52:54;12.23;;;10.10;;
15673;SDS011;7937;48.090;16.212;2023-02-28T11:02:49;11.77;;;9.20;;
15673;SDS011;7937;48.090;16.212;2023-02-28T11:05:46;14.00;;;9.83;;
15673;SDS011;7937;48.090;16.212;2023-02-28T11:08:59;9.70;;;7.50;;
15673;SDS011;7937;48.090;16.212;2023-02-28T11:15:24;12.83;;;9.57;;
15673;SDS011;7937;48.090;16.212;2023-02-28T11:22:08;13.70;;;9.50;;
15673;SDS011;7937;48.090;16.212;2023-02-28T11:25:09;12.30;;;9.50;;
15673;SDS011;7937;48.090;16.212;2023-02-28T11:28:31;10.97;;;8.73;;
15673;SDS011;7937;48.090;16.212;2023-02-28T11:31:35;11.87;;;9.00;;
15673;SDS011;7937;48.090;16.212;2023-02-28T11:34:38;9.77;;;8.07;;
15673;SDS011;7937;48.090;16.212;2023-02-28T11:37:40;13.13;;;9.43;;
15673;SDS011;7937;48.090;16.212;2023-02-28T11:47:37;10.73;;;8.77;;
15673;SDS011;7937;48.090;16.212;2023-02-28T11:57:32;10.83;;;7.83;;
15673;SDS011;7937;48.090;16.212;2023-02-28T12:00:44;9.40;;;7.13;;
15673;SDS011;7937;48.090;16.212;2023-02-28T12:07:03;10.70;;;8.53;;
15673;SDS011;7937;48.090;16.212;2023-02-28T12:10:28;12.27;;;8.00;;
15673;SDS011;7937;48.090;16.212;2023-02-28T12:16:56;10.20;;;7.87;;
15673;SDS011;7937;48.090;16.212;2023-02-28T12:26:51;11.30;;;7.83;;
15673;SDS011;7937;48.090;16.212;2023-02-28T12:30:39;9.83;;;7.93;;
15673;SDS011;7937;48.090;16.212;2023-02-28T12:33:24;10.73;;;8.00;;
15673;SDS011;7937;48.090;16.212;2023-02-28T12:36:31;12.17;;;7.70;;
15673;SDS011;7937;48.090;16.212;2023-02-28T12:39:39;13.40;;;8.43;;
15673;SDS011;7937;48.090;16.212;2023-02-28T12:45:57;10.53;;;7.90;;
15673;SDS011;7937;48.090;16.212;2023-02-28T12:49:12;12.47;;;8.63;;
15673;SDS011;7937;48.090;16.212;2023-02-28T12:52:43;11.57;;;9.10;;
15673;SDS011;7937;48.090;16.212;2023-02-28T12:55:42;11.90;;;9.23;;
15673;SDS011;7937;48.090;16.212;2023-02-28T12:58:52;11.37;;;8.27;;
15673;SDS011;7937;48.090;16.212;2023-02-28T13:05:31;10.80;;;8.30;;
15673;SDS011;7937;48.090;16.212;2023-02-28T13:09:11;9.10;;;7.73;;
15673;SDS011;7937;48.090;16.212;2023-02-28T13:12:15;12.27;;;8.83;;
15673;SDS011;7937;48.090;16.212;2023-02-28T13:15:19;10.30;;;8.03;;
15673;SDS011;7937;48.090;16.212;2023-02-28T13:18:33;11.37;;;8.33;;
15673;SDS011;7937;48.090;16.212;2023-02-28T13:21:42;11.90;;;8.83;;
15673;SDS011;7937;48.090;16.212;2023-02-28T13:24:47;11.70;;;9.00;;
15673;SDS011;7937;48.090;16.212;2023-02-28T13:27:53;10.33;;;8.37;;
15673;SDS011;7937;48.090;16.212;2023-02-28T13:31:00;11.53;;;8.70;;
15673;SDS011;7937;48.090;16.212;2023-02-28T13:34:05;10.60;;;8.03;;
15673;SDS011;7937;48.090;16.212;2023-02-28T13:40:32;9.37;;;7.57;;
15673;SDS011;7937;48.090;16.212;2023-02-28T13:47:22;11.90;;;7.07;;
15673;SDS011;7937;48.090;16.212;2023-02-28T13:50:31;14.17;;;7.80;;
15673;SDS011;7937;48.090;16.212;2023-02-28T13:53:48;10.97;;;7.47;;
15673;SDS011;7937;48.090;16.212;2023-02-28T13:57:04;11.47;;;8.00;;
15673;SDS011;7937;48.090;16.212;2023-02-28T14:04:01;8.53;;;6.63;;
15673;SDS011;7937;48.090;16.212;2023-02-28T14:07:18;9.60;;;6.43;;
15673;SDS011;7937;48.090;16.212;2023-02-28T14:11:26;8.07;;;6.13;;
15673;SDS011;7937;48.090;16.212;2023-02-28T14:14:06;8.77;;;6.90;;
15673;SDS011;7937;48.090;16.212;2023-02-28T14:17:14;7.53;;;5.93;;
15673;SDS011;7937;48.090;16.212;2023-02-28T14:20:18;12.43;;;7.60;;
15673;SDS011;7937;48.090;16.212;2023-02-28T14:23:32;9.47;;;6.67;;
15673;SDS011;7937;48.090;16.212;2023-02-28T14:30:24;8.60;;;6.50;;
15673;SDS011;7937;48.090;16.212;2023-02-28T14:37:14;6.40;;;5.50;;
15673;SDS011;7937;48.090;16.212;2023-02-28T14:43:33;7.53;;;5.60;;
15673;SDS011;7937;48.090;16.212;2023-02-28T14:46:36;9.50;;;7.90;;
15673;SDS011;7937;48.090;16.212;2023-02-28T14:49:44;9.93;;;6.90;;
15673;SDS011;7937;48.090;16.212;2023-02-28T14:52:52;7.07;;;5.27;;
15673;SDS011;7937;48.090;16.212;2023-02-28T14:55:56;11.97;;;6.67;;
15673;SDS011;7937;48.090;16.212;2023-02-28T14:58:58;7.40;;;6.23;;
15673;SDS011;7937;48.090;16.212;2023-02-28T15:05:36;9.93;;;6.53;;
15673;SDS011;7937;48.090;16.212;2023-02-28T15:08:39;9.17;;;6.47;;
15673;SDS011;7937;48.090;16.212;2023-02-28T15:11:41;8.83;;;6.50;;
15673;SDS011;7937;48.090;16.212;2023-02-28T15:14:46;7.00;;;5.93;;
15673;SDS011;7937;48.090;16.212;2023-02-28T15:17:53;7.83;;;5.90;;
15673;SDS011;7937;48.090;16.212;2023-02-28T15:20:59;8.50;;;6.70;;
15673;SDS011;7937;48.090;16.212;2023-02-28T15:24:11;8.40;;;6.77;;
15673;SDS011;7937;48.090;16.212;2023-02-28T15:27:23;7.80;;;5.83;;
15673;SDS011;7937;48.090;16.212;2023-02-28T15:30:31;8.23;;;5.87;;
15673;SDS011;7937;48.090;16.212;2023-02-28T15:33:34;7.60;;;6.20;;
15673;SDS011;7937;48.090;16.212;2023-02-28T15:36:36;5.30;;;4.60;;
15673;SDS011;7937;48.090;16.212;2023-02-28T15:39:41;6.43;;;5.70;;
15673;SDS011;7937;48.090;16.212;2023-02-28T15:46:18;8.30;;;5.80;;
15673;SDS011;7937;48.090;16.212;2023-02-28T15:49:21;7.30;;;5.80;;
15673;SDS011;7937;48.090;16.212;2023-02-28T15:52:28;7.83;;;5.27;;
15673;SDS011;7937;48.090;16.212;2023-02-28T15:55:35;16.60;;;11.07;;
15673;SDS011;7937;48.090;16.212;2023-02-28T15:58:38;8.67;;;7.23;;
15673;SDS011;7937;48.090;16.212;2023-02-28T16:01:40;9.00;;;5.50;;
15673;SDS011;7937;48.090;16.212;2023-02-28T16:08:29;6.30;;;5.17;;
15673;SDS011;7937;48.090;16.212;2023-02-28T16:11:32;9.60;;;5.63;;
15673;SDS011;7937;48.090;16.212;2023-02-28T16:14:36;5.50;;;4.97;;
15673;SDS011;7937;48.090;16.212;2023-02-28T16:17:40;7.03;;;4.97;;
15673;SDS011;7937;48.090;16.212;2023-02-28T16:20:42;7.10;;;5.07;;
15673;SDS011;7937;48.090;16.212;2023-02-28T16:23:46;7.77;;;5.27;;
15673;SDS011;7937;48.090;16.212;2023-02-28T16:26:48;8.23;;;5.13;;
15673;SDS011;7937;48.090;16.212;2023-02-28T16:29:53;6.87;;;5.17;;
15673;SDS011;7937;48.090;16.212;2023-02-28T16:32:56;8.43;;;5.57;;
15673;SDS011;7937;48.090;16.212;2023-02-28T16:35:58;8.47;;;5.63;;
15673;SDS011;7937;48.090;16.212;2023-02-28T16:39:01;6.67;;;5.20;;
15673;SDS011;7937;48.090;16.212;2023-02-28T16:42:04;7.73;;;5.33;;
15673;SDS011;7937;48.090;16.212;2023-02-28T16:45:08;7.70;;;5.30;;
15673;SDS011;7937;48.090;16.212;2023-02-28T16:48:21;7.33;;;5.30;;
15673;SDS011;7937;48.090;16.212;2023-02-28T16:51:24;7.13;;;5.03;;
15673;SDS011;7937;48.090;16.212;2023-02-28T16:54:27;7.20;;;5.23;;
15673;SDS011;7937;48.090;16.212;2023-02-28T16:57:29;8.37;;;5.00;;
15673;SDS011;7937;48.090;16.212;2023-02-28T17:00:34;9.13;;;5.30;;
15673;SDS011;7937;48.090;16.212;2023-02-28T17:03:36;8.40;;;5.67;;
15673;SDS011;7937;48.090;16.212;2023-02-28T17:06:41;7.53;;;5.80;;
15673;SDS011;7937;48.090;16.212;2023-02-28T17:09:44;8.07;;;5.83;;
15673;SDS011;7937;48.090;16.212;2023-02-28T17:12:47;8.17;;;6.03;;
15673;SDS011;7937;48.090;16.212;2023-02-28T17:15:49;10.47;;;6.37;;
15673;SDS011;7937;48.090;16.212;2023-02-28T17:18:53;16.60;;;6.23;;
15673;SDS011;7937;48.090;16.212;2023-02-28T17:21:58;10.63;;;6.00;;
15673;SDS011;7937;48.090;16.212;2023-02-28T17:25:02;7.30;;;5.00;;
15673;SDS011;7937;48.090;16.212;2023-02-28T17:28:05;8.53;;;5.50;;
15673;SDS011;7937;48.090;16.212;2023-02-28T17:31:08;7.13;;;5.13;;
15673;SDS011;7937;48.090;16.212;2023-02-28T17:34:12;5.47;;;4.50;;
15673;SDS011;7937;48.090;16.212;2023-02-28T17:37:20;8.47;;;5.50;;
15673;SDS011;7937;48.090;16.212;2023-02-28T17:40:24;6.80;;;4.97;;
15673;SDS011;7937;48.090;16.212;2023-02-28T17:43:26;7.80;;;5.40;;
15673;SDS011;7937;48.090;16.212;2023-02-28T17:46:30;7.27;;;5.27;;
15673;SDS011;7937;48.090;16.212;2023-02-28T17:49:34;7.63;;;5.40;;
15673;SDS011;7937;48.090;16.212;2023-02-28T17:52:38;7.10;;;5.03;;
15673;SDS011;7937;48.090;16.212;2023-02-28T17:55:40;7.33;;;4.67;;
15673;SDS011;7937;48.090;16.212;2023-02-28T17:58:42;6.43;;;4.90;;
15673;SDS011;7937;48.090;16.212;2023-02-28T18:01:45;7.37;;;5.70;;
15673;SDS011;7937;48.090;16.212;2023-02-28T18:04:48;7.07;;;5.10;;
15673;SDS011;7937;48.090;16.212;2023-02-28T18:07:50;8.17;;;5.53;;
15673;SDS011;7937;48.090;16.212;2023-02-28T18:10:54;8.50;;;5.60;;
15673;SDS011;7937;48.090;16.212;2023-02-28T18:13:57;8.90;;;5.63;;
15673;SDS011;7937;48.090;16.212;2023-02-28T18:17:00;7.53;;;5.37;;
15673;SDS011;7937;48.090;16.212;2023-02-28T18:20:03;7.30;;;5.33;;
15673;SDS011;7937;48.090;16.212;2023-02-28T18:23:06;6.33;;;5.47;;
15673;SDS011;7937;48.090;16.212;2023-02-28T18:26:09;8.53;;;6.20;;
15673;SDS011;7937;48.090;16.212;2023-02-28T18:29:16;7.97;;;5.93;;
15673;SDS011;7937;48.090;16.212;2023-02-28T18:32:27;7.67;;;6.17;;
15673;SDS011;7937;48.090;16.212;2023-02-28T18:35:34;8.37;;;6.00;;
15673;SDS011;7937;48.090;16.212;2023-02-28T18:38:38;6.97;;;6.07;;
15673;SDS011;7937;48.090;16.212;2023-02-28T18:41:41;10.73;;;7.30;;
15673;SDS011;7937;48.090;16.212;2023-02-28T18:44:44;7.13;;;6.00;;
15673;SDS011;7937;48.090;16.212;2023-02-28T18:47:48;8.20;;;6.57;;
15673;SDS011;7937;48.090;16.212;2023-02-28T18:50:51;8.70;;;6.70;;
15673;SDS011;7937;48.090;16.212;2023-02-28T18:53:54;10.10;;;6.67;;
15673;SDS011;7937;48.090;16.212;2023-02-28T18:56:58;8.13;;;6.20;;
15673;SDS011;7937;48.090;16.212;2023-02-28T19:00:02;10.47;;;7.03;;
15673;SDS011;7937;48.090;16.212;2023-02-28T19:03:05;8.07;;;6.83;;
15673;SDS011;7937;48.090;16.212;2023-02-28T19:06:08;9.13;;;6.73;;
15673;SDS011;7937;48.090;16.212;2023-02-28T19:09:12;7.10;;;6.40;;
15673;SDS011;7937;48.090;16.212;2023-02-28T19:12:15;9.47;;;6.97;;
15673;SDS011;7937;48.090;16.212;2023-02-28T19:15:18;8.60;;;7.37;;
15673;SDS011;7937;48.090;16.212;2023-02-28T19:18:21;9.40;;;7.33;;
15673;SDS011;7937;48.090;16.212;2023-02-28T19:21:24;11.57;;;7.90;;
15673;SDS011;7937;48.090;16.212;2023-02-28T19:24:28;8.67;;;7.13;;
15673;SDS011;7937;48.090;16.212;2023-02-28T19:27:33;8.53;;;6.93;;
15673;SDS011;7937;48.090;16.212;2023-02-28T19:30:36;10.90;;;7.47;;
15673;SDS011;7937;48.090;16.212;2023-02-28T19:33:40;9.40;;;7.27;;
15673;SDS011;7937;48.090;16.212;2023-02-28T19:36:43;10.37;;;7.20;;
15673;SDS011;7937;48.090;16.212;2023-02-28T19:39:47;11.37;;;8.70;;
15673;SDS011;7937;48.090;16.212;2023-02-28T19:42:50;11.23;;;8.17;;
15673;SDS011;7937;48.090;16.212;2023-02-28T19:45:53;10.27;;;7.60;;
15673;SDS011;7937;48.090;16.212;2023-02-28T19:48:56;9.80;;;7.30;;
15673;SDS011;7937;48.090;16.212;2023-02-28T19:51:59;9.97;;;7.70;;
15673;SDS011;7937;48.090;16.212;2023-02-28T19:55:04;11.50;;;7.70;;
15673;SDS011;7937;48.090;16.212;2023-02-28T19:58:07;10.83;;;7.37;;
15673;SDS011;7937;48.090;16.212;2023-02-28T20:01:12;9.47;;;7.20;;
15673;SDS011;7937;48.090;16.212;2023-02-28T20:04:17;12.03;;;8.83;;
15673;SDS011;7937;48.090;16.212;2023-02-28T20:07:20;10.40;;;7.87;;
15673;SDS011;7937;48.090;16.212;2023-02-28T20:10:23;11.60;;;8.60;;
15673;SDS011;7937;48.090;16.212;2023-02-28T20:13:27;10.20;;;8.20;;
15673;SDS011;7937;48.090;16.212;2023-02-28T20:16:30;10.07;;;8.17;;
15673;SDS011;7937;48.090;16.212;2023-02-28T20:19:35;10.00;;;7.83;;
15673;SDS011;7937;48.090;16.212;2023-02-28T20:22:39;12.37;;;8.93;;
15673;SDS011;7937;48.090;16.212;2023-02-28T20:25:42;11.33;;;8.57;;
15673;SDS011;7937;48.090;16.212;2023-02-28T20:28:45;11.57;;;8.63;;